createdAt,value
2017-09-22T00:00:40.343Z,13.13
2017-09-22T00:03:07.890Z,14.53
2017-09-22T00:05:36.182Z,14.83
2017-09-22T00:08:03.716Z,13.03
2017-09-22T00:10:31.254Z,17.00
2017-09-22T00:12:58.844Z,20.60
2017-09-22T00:15:26.373Z,17.47
2017-09-22T00:17:54.993Z,21.93
2017-09-22T00:20:22.533Z,18.47
2017-09-22T00:22:50.065Z,20.90
2017-09-22T00:25:17.632Z,16.23
2017-09-22T00:27:45.928Z,19.20
2017-09-22T00:30:13.467Z,17.60
2017-09-22T00:32:41.764Z,21.40
2017-09-22T00:35:09.375Z,19.13
2017-09-22T00:37:36.929Z,20.57
2017-09-22T00:40:04.448Z,21.73
2017-09-22T00:42:32.009Z,16.13
2017-09-22T00:44:59.549Z,20.20
2017-09-22T00:47:27.883Z,18.10
2017-09-22T00:49:55.420Z,20.93
2017-09-22T00:52:22.968Z,19.83
2017-09-22T00:54:50.516Z,16.00
2017-09-22T00:57:18.096Z,16.50
2017-09-22T00:59:45.640Z,18.60
2017-09-22T01:02:13.194Z,18.97
2017-09-22T01:04:40.719Z,24.83
2017-09-22T01:07:09.047Z,20.27
2017-09-22T01:09:36.624Z,20.20
2017-09-22T01:12:04.184Z,18.70
2017-09-22T01:14:31.764Z,17.33
2017-09-22T01:16:59.318Z,17.63
2017-09-22T01:19:26.846Z,15.00
2017-09-22T01:21:54.384Z,17.23
2017-09-22T01:24:21.955Z,17.40
2017-09-22T01:26:49.525Z,16.40
2017-09-22T01:29:17.066Z,14.70
2017-09-22T01:31:45.392Z,20.07
2017-09-22T01:34:12.933Z,16.80
2017-09-22T01:36:40.497Z,15.77
2017-09-22T01:39:08.031Z,17.07
2017-09-22T01:41:35.645Z,21.13
2017-09-22T01:44:03.192Z,18.70
2017-09-22T01:46:30.746Z,17.57
2017-09-22T01:48:58.293Z,20.87
2017-09-22T01:51:25.834Z,18.67
2017-09-22T01:53:53.369Z,21.03
2017-09-22T01:56:20.956Z,18.50
2017-09-22T01:58:48.529Z,17.07
2017-09-22T02:01:16.068Z,20.50
2017-09-22T02:03:43.605Z,19.70
2017-09-22T02:06:11.165Z,16.13
2017-09-22T02:08:38.745Z,14.30
2017-09-22T02:11:06.288Z,14.70
2017-09-22T02:13:33.822Z,16.87
2017-09-22T02:16:01.361Z,14.20
2017-09-22T02:18:28.879Z,17.37
2017-09-22T02:20:56.411Z,15.23
2017-09-22T02:23:23.965Z,15.03
2017-09-22T02:25:51.525Z,18.00
2017-09-22T02:28:19.832Z,14.83
2017-09-22T02:30:47.392Z,20.93
2017-09-22T02:33:14.950Z,15.07
2017-09-22T02:35:42.496Z,16.00
2017-09-22T02:38:10.062Z,18.30
2017-09-22T02:40:37.597Z,15.67
2017-09-22T02:43:05.167Z,19.83
2017-09-22T02:45:32.711Z,15.40
2017-09-22T02:48:01.053Z,19.43
2017-09-22T02:50:28.600Z,17.10
2017-09-22T02:52:56.160Z,15.87
2017-09-22T02:55:23.727Z,14.80
2017-09-22T02:57:51.283Z,14.23
2017-09-22T03:00:18.810Z,16.17
2017-09-22T03:02:46.360Z,18.27
2017-09-22T03:05:13.896Z,17.53
2017-09-22T03:07:41.457Z,18.73
2017-09-22T03:10:09.773Z,21.53
2017-09-22T03:12:37.330Z,14.83
2017-09-22T03:15:04.858Z,19.60
2017-09-22T03:17:33.186Z,21.63
2017-09-22T03:20:00.719Z,17.47
2017-09-22T03:22:28.276Z,24.83
2017-09-22T03:24:55.840Z,19.90
2017-09-22T03:27:23.388Z,19.43
2017-09-22T03:29:50.941Z,23.60
2017-09-22T03:32:19.219Z,17.67
2017-09-22T03:34:46.760Z,17.73
2017-09-22T03:37:15.058Z,19.03
2017-09-22T03:39:43.082Z,17.63
2017-09-22T03:42:10.604Z,17.47
2017-09-22T03:44:38.133Z,14.80
2017-09-22T03:47:06.458Z,16.90
2017-09-22T03:49:33.989Z,14.63
2017-09-22T03:52:01.534Z,13.80
2017-09-22T03:54:29.133Z,15.70
2017-09-22T03:56:56.693Z,13.87
2017-09-22T03:59:24.232Z,13.50
2017-09-22T04:01:51.796Z,13.93
2017-09-22T04:04:19.327Z,16.13
2017-09-22T04:06:47.604Z,13.17
2017-09-22T04:09:15.917Z,15.03
2017-09-22T04:11:43.443Z,15.00
2017-09-22T04:14:10.993Z,14.30
2017-09-22T04:16:39.308Z,13.20
2017-09-22T04:19:06.857Z,12.10
2017-09-22T04:21:34.395Z,14.77
2017-09-22T04:24:02.692Z,14.13
2017-09-22T04:26:31.004Z,13.87
2017-09-22T04:28:58.556Z,11.83
2017-09-22T04:31:26.151Z,12.70
2017-09-22T04:33:54.489Z,15.53
2017-09-22T04:36:22.001Z,13.53
2017-09-22T04:38:49.527Z,16.97
2017-09-22T04:41:17.072Z,14.07
2017-09-22T04:43:44.589Z,14.70
2017-09-22T04:46:12.135Z,14.73
2017-09-22T04:48:40.434Z,14.53
2017-09-22T04:51:07.992Z,13.90
2017-09-22T04:53:35.576Z,14.43
2017-09-22T04:56:03.150Z,17.23
2017-09-22T04:58:30.674Z,12.47
2017-09-22T05:00:58.247Z,11.40
2017-09-22T05:03:25.814Z,12.27
2017-09-22T05:05:53.365Z,20.03
2017-09-22T05:08:20.922Z,18.77
2017-09-22T05:10:48.470Z,13.10
2017-09-22T05:13:16.018Z,16.20
2017-09-22T05:15:43.552Z,32.63
2017-09-22T05:18:11.878Z,40.83
2017-09-22T05:20:39.402Z,37.47
2017-09-22T05:23:07.709Z,29.10
2017-09-22T05:25:35.263Z,29.70
2017-09-22T05:28:02.812Z,26.83
2017-09-22T05:30:30.346Z,25.77
2017-09-22T05:32:57.890Z,20.10
2017-09-22T05:35:25.435Z,18.43
2017-09-22T05:37:52.974Z,18.57
2017-09-22T05:40:20.518Z,16.50
2017-09-22T05:42:48.051Z,19.80
2017-09-22T05:45:15.582Z,15.83
2017-09-22T05:47:43.910Z,19.03
2017-09-22T05:50:11.445Z,17.63
2017-09-22T05:52:38.996Z,21.23
2017-09-22T05:55:07.312Z,21.10
2017-09-22T05:57:34.827Z,15.33
2017-09-22T06:00:03.146Z,20.37
2017-09-22T06:02:30.690Z,17.40
2017-09-22T06:04:58.708Z,17.40
2017-09-22T06:07:26.228Z,16.60
2017-09-22T06:09:53.770Z,15.77
2017-09-22T06:12:21.308Z,11.43
2017-09-22T06:14:49.607Z,15.83
2017-09-22T06:17:17.181Z,14.97
2017-09-22T06:19:44.744Z,12.57
2017-09-22T06:22:12.356Z,15.67
2017-09-22T06:24:40.681Z,12.13
2017-09-22T06:27:08.214Z,11.80
2017-09-22T06:29:35.745Z,12.13
2017-09-22T06:32:04.096Z,12.30
2017-09-22T06:34:31.618Z,10.70
2017-09-22T06:36:59.179Z,12.47
2017-09-22T06:39:26.710Z,14.57
2017-09-22T06:41:54.272Z,12.23
2017-09-22T06:44:22.580Z,12.87
2017-09-22T06:46:50.417Z,9.83
2017-09-22T06:49:18.709Z,13.57
2017-09-22T06:51:46.241Z,9.00
2017-09-22T06:54:13.808Z,9.87
2017-09-22T06:56:42.112Z,7.30
2017-09-22T06:59:09.649Z,11.83
2017-09-22T07:01:37.942Z,10.47
2017-09-22T07:04:05.523Z,11.63
2017-09-22T07:06:33.034Z,9.83
2017-09-22T07:09:00.601Z,15.83
2017-09-22T07:11:28.914Z,27.83
2017-09-22T07:13:56.470Z,31.40
2017-09-22T07:16:24.033Z,15.93
2017-09-22T07:18:51.557Z,14.43
2017-09-22T07:21:19.883Z,16.30
2017-09-22T07:23:47.430Z,17.10
2017-09-22T07:26:14.999Z,20.53
2017-09-22T07:28:42.545Z,18.03
2017-09-22T07:31:10.103Z,15.90
2017-09-22T07:33:37.658Z,25.07
2017-09-22T07:36:05.988Z,20.03
2017-09-22T07:38:33.591Z,21.00
2017-09-22T07:41:01.155Z,17.13
2017-09-22T07:43:28.692Z,16.97
2017-09-22T07:45:57.009Z,14.77
2017-09-22T07:48:24.566Z,17.10
2017-09-22T07:50:52.097Z,13.57
2017-09-22T07:53:19.658Z,16.10
2017-09-22T07:55:47.801Z,16.57
2017-09-22T07:58:15.361Z,17.57
2017-09-22T08:00:42.935Z,14.63
2017-09-22T08:03:11.247Z,17.23
2017-09-22T08:05:38.824Z,14.53
2017-09-22T08:08:07.098Z,19.13
2017-09-22T08:10:34.741Z,20.30
2017-09-22T08:13:02.280Z,20.27
2017-09-22T08:15:29.843Z,17.40
2017-09-22T08:17:57.405Z,23.13
2017-09-22T08:20:24.965Z,21.10
2017-09-22T08:22:52.813Z,23.23
2017-09-22T08:25:20.403Z,20.50
2017-09-22T08:27:47.951Z,22.77
2017-09-22T08:30:15.796Z,23.73
2017-09-22T08:32:43.344Z,21.57
2017-09-22T08:35:11.672Z,20.77
2017-09-22T08:37:39.252Z,19.03
2017-09-22T08:40:06.851Z,21.77
2017-09-22T08:42:34.437Z,24.97
2017-09-22T08:45:02.016Z,22.53
2017-09-22T08:47:29.568Z,22.43
2017-09-22T08:49:57.132Z,21.93
2017-09-22T08:52:25.032Z,20.40
2017-09-22T08:54:53.360Z,20.60
2017-09-22T08:57:20.918Z,24.57
2017-09-22T08:59:48.494Z,21.47
2017-09-22T09:02:16.034Z,22.40
2017-09-22T09:04:43.867Z,23.23
2017-09-22T09:07:12.193Z,19.63
2017-09-22T09:09:39.737Z,16.03
2017-09-22T09:12:08.107Z,18.17
2017-09-22T09:14:35.687Z,17.60
2017-09-22T09:17:03.253Z,16.37
2017-09-22T09:19:30.789Z,16.47
2017-09-22T09:21:59.134Z,14.33
2017-09-22T09:24:26.701Z,13.27
2017-09-22T09:26:55.026Z,13.73
2017-09-22T09:29:22.587Z,13.53
2017-09-22T09:31:50.141Z,15.90
2017-09-22T09:34:17.701Z,17.60
2017-09-22T09:36:45.268Z,16.40
2017-09-22T09:39:12.842Z,16.77
2017-09-22T09:41:41.201Z,11.70
2017-09-22T09:44:09.166Z,14.07
2017-09-22T09:46:36.697Z,12.67
2017-09-22T09:49:04.226Z,12.17
2017-09-22T09:51:31.787Z,11.47
2017-09-22T09:54:00.077Z,13.20
2017-09-22T09:56:28.428Z,11.97
2017-09-22T09:58:55.988Z,11.23
2017-09-22T10:01:24.340Z,11.10
2017-09-22T10:03:51.880Z,10.73
2017-09-22T10:06:19.429Z,12.80
2017-09-22T10:08:46.982Z,11.60
2017-09-22T10:11:14.549Z,9.57
2017-09-22T10:13:42.102Z,9.70
2017-09-22T10:16:09.664Z,9.27
2017-09-22T10:18:37.955Z,9.63
2017-09-22T10:21:05.499Z,8.90
2017-09-22T10:23:33.329Z,8.67
2017-09-22T10:26:00.888Z,11.60
2017-09-22T10:28:30.062Z,12.40
2017-09-22T10:30:57.632Z,9.33
2017-09-22T10:33:25.205Z,8.57
2017-09-22T10:35:53.976Z,9.73
2017-09-22T10:38:21.549Z,8.57
2017-09-22T10:40:49.865Z,8.70
2017-09-22T10:43:17.458Z,14.67
2017-09-22T10:45:45.008Z,7.87
2017-09-22T10:48:12.595Z,6.90
2017-09-22T10:50:40.149Z,7.60
2017-09-22T10:53:07.729Z,7.50
2017-09-22T10:55:35.285Z,6.43
2017-09-22T10:58:03.623Z,11.87
2017-09-22T11:00:31.183Z,7.73
2017-09-22T11:02:58.735Z,6.10
2017-09-22T11:05:26.324Z,5.53
2017-09-22T11:07:53.873Z,6.10
2017-09-22T11:10:21.456Z,6.67
2017-09-22T11:12:49.742Z,6.43
2017-09-22T11:15:18.090Z,8.77
2017-09-22T11:17:45.674Z,8.23
2017-09-22T11:20:13.982Z,7.33
2017-09-22T11:22:41.556Z,8.97
2017-09-22T11:25:09.103Z,9.97
2017-09-22T11:27:36.677Z,8.30
2017-09-22T11:30:05.080Z,9.20
2017-09-22T11:32:33.049Z,10.93
2017-09-22T11:35:00.686Z,7.57
2017-09-22T11:37:28.263Z,8.53
2017-09-22T11:39:55.810Z,10.10
2017-09-22T11:42:23.355Z,8.60
2017-09-22T11:44:50.967Z,8.10
2017-09-22T11:47:19.282Z,7.63
2017-09-22T11:49:46.881Z,8.70
2017-09-22T11:52:14.419Z,8.60
2017-09-22T11:54:41.950Z,8.70
2017-09-22T11:57:10.238Z,8.47
2017-09-22T11:59:37.799Z,7.60
2017-09-22T12:02:05.324Z,8.23
2017-09-22T12:04:32.900Z,6.07
2017-09-22T12:07:01.299Z,7.03
2017-09-22T12:09:28.851Z,7.00
2017-09-22T12:11:56.402Z,6.20
2017-09-22T12:14:23.949Z,5.30
2017-09-22T12:16:52.267Z,5.73
2017-09-22T12:19:19.835Z,6.53
2017-09-22T12:21:47.488Z,5.00
2017-09-22T12:24:15.046Z,5.13
2017-09-22T12:26:42.644Z,5.03
2017-09-22T12:29:10.199Z,6.00
2017-09-22T12:31:37.731Z,5.70
2017-09-22T12:34:05.278Z,5.50
2017-09-22T12:36:32.822Z,6.10
2017-09-22T12:39:00.358Z,5.30
2017-09-22T12:41:28.678Z,5.67
2017-09-22T12:43:56.227Z,5.43
2017-09-22T12:46:23.785Z,4.40
2017-09-22T12:48:51.320Z,6.30
2017-09-22T12:51:18.910Z,5.30
2017-09-22T12:53:46.864Z,5.53
2017-09-22T12:56:15.681Z,5.67
2017-09-22T12:58:43.275Z,5.10
2017-09-22T13:01:10.833Z,4.50
2017-09-22T13:03:38.431Z,5.27
2017-09-22T13:06:06.024Z,6.93
2017-09-22T13:08:34.554Z,4.53
2017-09-22T13:11:02.172Z,4.70
2017-09-22T13:13:30.110Z,5.53
2017-09-22T13:15:57.702Z,5.13
2017-09-22T13:18:25.269Z,5.57
2017-09-22T13:20:52.920Z,4.80
2017-09-22T13:23:20.522Z,4.73
2017-09-22T13:25:48.831Z,5.17
2017-09-22T13:28:16.402Z,6.30
2017-09-22T13:30:44.060Z,5.63
2017-09-22T13:33:11.617Z,5.00
2017-09-22T13:35:39.284Z,5.20
2017-09-22T13:38:06.896Z,4.80
2017-09-22T13:40:34.480Z,6.50
2017-09-22T13:43:02.065Z,5.50
2017-09-22T13:45:29.645Z,6.63
2017-09-22T13:47:57.279Z,4.97
2017-09-22T13:50:25.454Z,5.20
2017-09-22T13:52:53.012Z,4.63
2017-09-22T13:55:20.588Z,4.07
2017-09-22T13:57:48.181Z,4.80
2017-09-22T14:00:15.891Z,3.53
2017-09-22T14:02:43.458Z,3.93
2017-09-22T14:05:11.001Z,4.27
2017-09-22T14:07:39.227Z,4.40
2017-09-22T14:10:06.790Z,3.43
2017-09-22T14:12:34.395Z,4.20
2017-09-22T14:15:01.995Z,4.50
2017-09-22T14:17:29.583Z,4.37
2017-09-22T14:19:57.960Z,4.17
2017-09-22T14:22:25.546Z,3.77
2017-09-22T14:24:53.126Z,4.27
2017-09-22T14:27:21.445Z,4.10
2017-09-22T14:29:49.011Z,4.17
2017-09-22T14:32:16.576Z,3.50
2017-09-22T14:34:44.124Z,5.07
2017-09-22T14:37:11.683Z,3.67
2017-09-22T14:39:39.241Z,3.53
2017-09-22T14:42:06.807Z,4.53
2017-09-22T14:44:34.361Z,4.33
2017-09-22T14:47:01.933Z,4.77
2017-09-22T14:49:29.515Z,4.70
2017-09-22T14:51:57.079Z,4.90
2017-09-22T14:54:24.645Z,4.00
2017-09-22T14:56:52.198Z,3.83
2017-09-22T14:59:19.750Z,4.60
2017-09-22T15:01:47.312Z,4.07
2017-09-22T15:04:14.870Z,4.10
2017-09-22T15:06:42.439Z,4.80
2017-09-22T15:09:10.290Z,5.10
2017-09-22T15:13:59.494Z,5.10
2017-09-22T15:16:27.549Z,5.20
2017-09-22T15:18:55.118Z,4.70
2017-09-22T15:21:22.685Z,5.03
2017-09-22T15:23:50.220Z,5.53
2017-09-22T15:26:18.119Z,5.60
2017-09-22T15:28:45.676Z,5.53
2017-09-22T15:31:13.228Z,5.90
2017-09-22T15:33:40.784Z,6.33
2017-09-22T15:36:08.304Z,6.00
2017-09-22T15:38:36.614Z,5.60
2017-09-22T15:41:04.152Z,4.97
2017-09-22T15:43:32.461Z,5.10
2017-09-22T15:46:00.143Z,5.70
2017-09-22T15:48:27.729Z,7.90
2017-09-22T15:50:55.293Z,5.80
2017-09-22T15:53:22.844Z,5.60
2017-09-22T15:55:50.394Z,5.73
2017-09-22T15:58:17.964Z,5.80
2017-09-22T16:00:45.545Z,5.30
2017-09-22T16:03:13.851Z,5.47
2017-09-22T16:05:41.447Z,6.27
2017-09-22T16:08:09.066Z,5.77
2017-09-22T16:10:36.644Z,5.97
2017-09-22T16:13:04.184Z,5.53
2017-09-22T16:15:32.016Z,6.23
2017-09-22T16:18:00.322Z,5.70
2017-09-22T16:20:27.904Z,5.33
2017-09-22T16:22:55.541Z,4.90
2017-09-22T16:25:23.103Z,6.70
2017-09-22T16:27:51.034Z,5.73
2017-09-22T16:30:18.595Z,6.43
2017-09-22T16:32:46.127Z,5.90
2017-09-22T16:35:13.751Z,5.40
2017-09-22T16:37:41.315Z,4.90
2017-09-22T16:40:08.913Z,5.77
2017-09-22T16:42:36.480Z,5.17
2017-09-22T16:45:04.027Z,5.93
2017-09-22T16:47:31.602Z,6.70
2017-09-22T16:49:59.166Z,6.83
2017-09-22T16:52:26.729Z,6.40
2017-09-22T16:54:54.277Z,8.20
2017-09-22T16:57:21.865Z,6.20
2017-09-22T16:59:50.208Z,7.83
2017-09-22T17:02:17.762Z,7.10
2017-09-22T17:04:45.345Z,6.00
2017-09-22T17:07:12.902Z,11.30
2017-09-22T17:09:41.042Z,7.10
2017-09-22T17:12:08.619Z,7.60
2017-09-22T17:14:36.189Z,6.37
2017-09-22T17:17:03.784Z,8.00
2017-09-22T17:19:32.109Z,7.93
2017-09-22T17:21:59.677Z,7.47
2017-09-22T17:24:27.368Z,8.83
2017-09-22T17:26:54.890Z,6.37
2017-09-22T17:29:22.512Z,8.37
2017-09-22T17:31:50.300Z,9.27
2017-09-22T17:34:17.876Z,10.47
2017-09-22T17:36:45.555Z,9.03
2017-09-22T17:39:13.106Z,8.60
2017-09-22T17:41:40.673Z,12.23
2017-09-22T17:44:12.515Z,9.90
2017-09-22T17:46:41.532Z,7.77
2017-09-22T17:49:10.358Z,8.50
2017-09-22T17:51:38.845Z,9.27
2017-09-22T17:54:06.440Z,8.77
2017-09-22T17:56:34.011Z,9.47
2017-09-22T17:59:01.610Z,8.90
2017-09-22T18:01:29.957Z,9.63
2017-09-22T18:03:58.734Z,10.80
2017-09-22T18:06:26.301Z,12.70
2017-09-22T18:08:53.856Z,8.60
2017-09-22T18:11:21.480Z,14.00
2017-09-22T18:13:49.319Z,9.80
2017-09-22T18:16:17.686Z,8.70
2017-09-22T18:18:46.004Z,10.70
2017-09-22T18:21:13.619Z,9.63
2017-09-22T18:23:41.200Z,11.70
2017-09-22T18:26:09.534Z,13.87
2017-09-22T18:28:37.098Z,15.50
2017-09-22T18:31:04.656Z,9.40
2017-09-22T18:33:32.219Z,13.00
2017-09-22T18:35:59.774Z,9.60
2017-09-22T18:38:27.334Z,13.37
2017-09-22T18:40:54.892Z,14.87
2017-09-22T18:43:22.489Z,11.20
2017-09-22T18:45:50.844Z,10.37
2017-09-22T18:48:18.439Z,11.80
2017-09-22T18:50:46.032Z,14.13
2017-09-22T18:53:13.622Z,17.83
2017-09-22T18:55:41.186Z,17.53
2017-09-22T18:58:08.766Z,22.00
2017-09-22T19:00:37.124Z,17.93
2017-09-22T19:03:04.735Z,17.00
2017-09-22T19:05:32.346Z,19.47
2017-09-22T19:07:59.925Z,14.23
2017-09-22T19:10:28.306Z,14.60
2017-09-22T19:12:55.883Z,15.50
2017-09-22T19:15:23.436Z,17.80
2017-09-22T19:17:51.055Z,13.70
2017-09-22T19:20:18.605Z,14.30
2017-09-22T19:22:46.163Z,15.93
2017-09-22T19:25:13.766Z,13.40
2017-09-22T19:27:42.094Z,16.30
2017-09-22T19:30:09.677Z,12.37
2017-09-22T19:32:37.260Z,13.67
2017-09-22T19:35:05.355Z,15.30
2017-09-22T19:37:32.922Z,10.40
2017-09-22T19:40:00.511Z,20.40
2017-09-22T19:42:28.110Z,12.50
2017-09-22T19:44:56.425Z,12.47
2017-09-22T19:47:24.017Z,15.67
2017-09-22T19:49:51.588Z,10.93
2017-09-22T19:52:19.177Z,12.50
2017-09-22T19:54:46.850Z,15.20
2017-09-22T19:57:14.452Z,14.13
2017-09-22T19:59:42.021Z,15.17
2017-09-22T20:02:09.589Z,12.73
2017-09-22T20:04:37.178Z,12.33
2017-09-22T20:07:04.730Z,13.93
2017-09-22T20:09:32.300Z,13.30
2017-09-22T20:11:59.876Z,19.87
2017-09-22T20:14:27.452Z,15.03
2017-09-22T20:16:55.037Z,17.43
2017-09-22T20:19:22.602Z,14.63
2017-09-22T20:21:50.189Z,14.70
2017-09-22T20:24:17.765Z,19.43
2017-09-22T20:26:45.309Z,13.27
2017-09-22T20:29:13.654Z,15.50
2017-09-22T20:31:41.198Z,23.60
2017-09-22T20:34:08.755Z,15.90
2017-09-22T20:36:36.363Z,19.13
2017-09-22T20:39:03.934Z,13.63
2017-09-22T20:41:31.501Z,14.03
2017-09-22T20:43:59.059Z,19.70
2017-09-22T20:46:26.619Z,22.40
2017-09-22T20:48:54.256Z,24.17
2017-09-22T20:51:22.624Z,16.70
2017-09-22T20:53:50.958Z,15.50
2017-09-22T20:56:18.538Z,14.80
2017-09-22T20:58:46.124Z,15.77
2017-09-22T21:01:14.440Z,12.93
2017-09-22T21:03:42.036Z,14.37
2017-09-22T21:06:09.589Z,13.50
2017-09-22T21:08:37.163Z,15.47
2017-09-22T21:11:04.736Z,16.97
2017-09-22T21:13:33.097Z,18.90
2017-09-22T21:16:00.649Z,19.53
2017-09-22T21:18:28.235Z,14.90
2017-09-22T21:20:56.550Z,18.00
2017-09-22T21:23:24.097Z,14.23
2017-09-22T21:25:51.654Z,21.20
2017-09-22T21:28:19.229Z,18.67
2017-09-22T21:30:46.800Z,16.50
2017-09-22T21:33:14.369Z,15.60
2017-09-22T21:35:41.897Z,15.67
2017-09-22T21:38:09.454Z,18.17
2017-09-22T21:40:38.135Z,17.73
2017-09-22T21:43:05.708Z,22.07
2017-09-22T21:45:33.271Z,20.60
2017-09-22T21:48:00.813Z,25.20
2017-09-22T21:50:28.742Z,19.53
2017-09-22T21:52:56.295Z,19.80
2017-09-22T21:55:23.863Z,23.53
2017-09-22T21:57:51.433Z,24.87
2017-09-22T22:00:19.000Z,24.80
2017-09-22T22:02:47.348Z,22.43
2017-09-22T22:05:20.614Z,22.20
2017-09-22T22:07:48.198Z,18.00
2017-09-22T22:10:15.739Z,22.50
2017-09-22T22:12:43.327Z,26.73
2017-09-22T22:15:10.877Z,18.07
2017-09-22T22:17:38.847Z,19.80
2017-09-22T22:20:06.387Z,16.33
2017-09-22T22:22:33.954Z,16.27
2017-09-22T22:25:01.524Z,14.63
2017-09-22T22:27:29.113Z,16.20
2017-09-22T22:29:56.671Z,18.70
2017-09-22T22:32:25.017Z,14.03
2017-09-22T22:34:53.485Z,17.83
2017-09-22T22:37:21.045Z,14.10
2017-09-22T22:39:48.596Z,16.27
2017-09-22T22:42:16.153Z,14.57
2017-09-22T22:44:43.722Z,16.00
2017-09-22T22:47:11.272Z,16.47
2017-09-22T22:49:38.803Z,19.63
2017-09-22T22:52:06.380Z,17.57
2017-09-22T22:54:33.995Z,18.73
2017-09-22T22:57:01.549Z,14.90
2017-09-22T22:59:29.119Z,16.70
2017-09-22T23:01:56.685Z,13.00
2017-09-22T23:04:25.024Z,14.07
2017-09-22T23:06:52.607Z,14.90
2017-09-22T23:09:20.158Z,19.43
2017-09-22T23:11:47.702Z,17.53
2017-09-22T23:14:15.244Z,13.93
2017-09-22T23:16:42.802Z,16.20
2017-09-22T23:19:10.337Z,15.87
2017-09-22T23:21:37.893Z,15.30
2017-09-22T23:24:05.457Z,15.20
2017-09-22T23:26:32.992Z,15.00
2017-09-22T23:29:00.566Z,15.40
2017-09-22T23:31:28.874Z,19.37
2017-09-22T23:33:56.408Z,19.27
2017-09-22T23:36:23.942Z,24.17
2017-09-22T23:38:52.267Z,19.03
2017-09-22T23:41:19.841Z,20.50
2017-09-22T23:43:47.626Z,15.30
2017-09-22T23:46:15.183Z,17.33
2017-09-22T23:48:42.718Z,16.10
2017-09-22T23:51:10.297Z,14.83
2017-09-22T23:53:37.851Z,19.03
2017-09-22T23:56:05.409Z,16.07
2017-09-22T23:58:32.957Z,16.27
